Murree Weather



Murree's Current Weather

Temprature 11.25o broken clouds

broken clouds

Rain: 0 %

Min Temprature11.25o
Max Temprature11.25o
Humidity46
Wind Speed0.9 m/h
Sun Rise05:00:02
Sun Set19:06:45
Current Time: 24-May-2022 06:49:22
Lat/Lon: 33.9073, 73.393




Murree's Geo Location



Murree's Weather Forecast

Time Overall Temp Min Temp Max Temp Humidity Wind Speed Rain
24-May-2022 (Tue)
08:00:00 broken clouds 11.250 11.250 14.910 40 1.31 m/h 0 %
11:00:00 broken clouds 13.960 13.960 19.390 36 2.52 m/h 0 %
14:00:00 scattered clouds 17.760 17.760 21.020 30 4.42 m/h 0 %
17:00:00 scattered clouds 19.530 19.530 19.530 29 2.41 m/h 0 %
20:00:00 scattered clouds 14.970 14.970 14.970 38 0.75 m/h 0 %
23:00:00 few clouds 13.600 13.600 13.600 40 2.31 m/h 0 %
25-May-2022 (Wed)
02:00:00 clear sky 12.490 12.490 12.490 43 2.68 m/h 0 %
05:00:00 clear sky 11.730 11.730 11.730 44 2.84 m/h 0 %
08:00:00 clear sky 19.410 19.410 19.410 29 0.91 m/h 0 %
11:00:00 clear sky 23.620 23.620 23.620 22 3.21 m/h 0 %
14:00:00 clear sky 25.580 25.580 25.580 19 4.18 m/h 0 %
17:00:00 clear sky 24.920 24.920 24.920 20 3.35 m/h 0 %
20:00:00 clear sky 18.710 18.710 18.710 28 0.76 m/h 0 %
23:00:00 clear sky 17.070 17.070 17.070 30 2.7 m/h 0 %
26-May-2022 (Thu)
02:00:00 clear sky 15.760 15.760 15.760 33 2.46 m/h 0 %
05:00:00 clear sky 14.960 14.960 14.960 35 3 m/h 0 %
08:00:00 clear sky 23.010 23.010 23.010 23 0.98 m/h 0 %
11:00:00 clear sky 27.000 27.000 27.000 17 3.74 m/h 0 %
14:00:00 clear sky 28.890 28.890 28.890 15 4.28 m/h 0 %
17:00:00 clear sky 28.210 28.210 28.210 15 3.11 m/h 0 %
20:00:00 clear sky 21.130 21.130 21.130 23 1.01 m/h 0 %
23:00:00 clear sky 18.930 18.930 18.930 29 3.35 m/h 0 %
27-May-2022 (Fri)
02:00:00 clear sky 17.690 17.690 17.690 31 3.13 m/h 0 %
05:00:00 clear sky 17.180 17.180 17.180 29 3.61 m/h 0 %
08:00:00 clear sky 25.750 25.750 25.750 18 1.06 m/h 0 %
11:00:00 clear sky 29.650 29.650 29.650 13 3.86 m/h 0 %
14:00:00 clear sky 31.300 31.300 31.300 11 4.53 m/h 0 %
17:00:00 clear sky 30.340 30.340 30.340 11 3.47 m/h 0 %
20:00:00 clear sky 22.920 22.920 22.920 17 0.48 m/h 0 %
23:00:00 clear sky 20.670 20.670 20.670 19 3.26 m/h 0 %
28-May-2022 (Sat)
02:00:00 clear sky 19.240 19.240 19.240 23 3.86 m/h 0 %
05:00:00 clear sky 17.630 17.630 17.630 30 3.42 m/h 0 %
08:00:00 few clouds 26.280 26.280 26.280 18 1.14 m/h 0 %
11:00:00 few clouds 30.520 30.520 30.520 13 3.83 m/h 0 %
14:00:00 broken clouds 30.540 30.540 30.540 13 2.85 m/h 0 %
17:00:00 broken clouds 20.500 20.500 20.500 38 7.8 m/h 0 %
20:00:00 light rain 17.520 17.520 17.520 50 6.7 m/h 16 %
23:00:00 overcast clouds 16.090 16.090 16.090 51 6.41 m/h 0 %
29-May-2022 (Sun)
02:00:00 overcast clouds 14.980 14.980 14.980 53 6.13 m/h 0 %
05:00:00 overcast clouds 14.770 14.770 14.770 49 4.77 m/h 0 %

Famous Cities (61)